Time;durP1;ratioP1;P1;durP2;ratioP2;P2;SDS_P1;SDS_P2;PMS_P1;PMS_P2;Temp;Humidity;BMP_temperature;BMP_pressure;BME280_temperature;BME280_humidity;BME280_pressure;Samples;Min_cycle;Max_cycle;Signal;HPM_P1;HPM_P2
2023/03/03 00:00:56;;;;;;;23.47;10.17;;;;;;;;;;4986508;28;20482;-66
2023/03/03 00:03:23;;;;;;;23.67;10.73;;;;;;;;;;4984275;28;20485;-66
2023/03/03 00:05:50;;;;;;;20.73;8.70;;;;;;;;;;4986570;28;20455;-66
2023/03/03 00:08:17;;;;;;;27.03;11.70;;;;;;;;;;4984319;28;20471;-66
2023/03/03 00:10:44;;;;;;;21.47;8.57;;;;;;;;;;4986306;28;20458;-66
2023/03/03 00:13:17;;;;;;;23.47;10.90;;;;;;;;;;4982207;28;20471;-66
2023/03/03 00:15:44;;;;;;;25.17;10.77;;;;;;;;;;4984608;28;20552;-66
2023/03/03 00:18:29;;;;;;;25.57;10.73;;;;;;;;;;4984634;28;20795;-66
2023/03/03 00:21:32;;;;;;;26.20;11.13;;;;;;;;;;4964459;28;20454;-66
2023/03/03 00:24:31;;;;;;;25.70;10.93;;;;;;;;;;4967482;28;20451;-66
2023/03/03 00:26:59;;;;;;;23.43;10.10;;;;;;;;;;4951327;28;20462;-66
2023/03/03 00:29:35;;;;;;;27.30;10.50;;;;;;;;;;4984279;28;20475;-66
2023/03/03 00:32:08;;;;;;;24.43;10.07;;;;;;;;;;4984114;28;20447;-66
2023/03/03 00:34:36;;;;;;;21.60;9.30;;;;;;;;;;4984395;28;20451;-66
2023/03/03 00:37:02;;;;;;;23.17;9.80;;;;;;;;;;4986015;28;20470;-66
2023/03/03 00:39:36;;;;;;;23.27;10.73;;;;;;;;;;4967908;28;20543;-66
2023/03/03 00:42:15;;;;;;;22.67;10.10;;;;;;;;;;4983583;28;20470;-66
2023/03/03 00:44:59;;;;;;;22.07;8.73;;;;;;;;;;4984023;28;20552;-66
2023/03/03 00:47:29;;;;;;;17.43;8.30;;;;;;;;;;4985901;28;20625;-66
2023/03/03 00:50:06;;;;;;;20.30;8.67;;;;;;;;;;4983755;28;20459;-66
2023/03/03 00:52:40;;;;;;;16.20;7.30;;;;;;;;;;4984005;28;20459;-66
2023/03/03 00:55:24;;;;;;;16.47;7.47;;;;;;;;;;4965715;28;20473;-66
2023/03/03 00:57:51;;;;;;;17.37;7.60;;;;;;;;;;4985610;28;20466;-66
2023/03/03 01:00:22;;;;;;;15.97;7.13;;;;;;;;;;4983673;28;20467;-66
2023/03/03 01:02:49;;;;;;;17.90;7.67;;;;;;;;;;4984893;28;20967;-66
2023/03/03 01:05:16;;;;;;;23.50;9.20;;;;;;;;;;4950861;28;20454;-66
2023/03/03 01:08:00;;;;;;;21.10;8.60;;;;;;;;;;4984486;28;20458;-66
2023/03/03 01:10:27;;;;;;;14.53;7.27;;;;;;;;;;4984751;28;20471;-66
2023/03/03 01:12:54;;;;;;;14.30;7.90;;;;;;;;;;4949072;28;20486;-66
2023/03/03 01:15:20;;;;;;;16.03;7.57;;;;;;;;;;4966696;28;20470;-66
2023/03/03 01:17:47;;;;;;;14.17;7.40;;;;;;;;;;4966041;28;20517;-66
2023/03/03 01:20:14;;;;;;;11.23;5.57;;;;;;;;;;4983742;28;20455;-66
2023/03/03 01:22:41;;;;;;;13.10;7.37;;;;;;;;;;4961135;28;20459;-66
2023/03/03 01:25:09;;;;;;;13.47;6.87;;;;;;;;;;4963860;28;20498;-66
2023/03/03 01:27:53;;;;;;;14.27;6.93;;;;;;;;;;4964699;28;20464;-66
2023/03/03 01:30:19;;;;;;;10.47;4.73;;;;;;;;;;4965861;28;20471;-66
2023/03/03 01:32:46;;;;;;;13.73;6.40;;;;;;;;;;4964446;28;20470;-66
2023/03/03 01:35:13;;;;;;;17.07;8.03;;;;;;;;;;4965728;28;20988;-65
2023/03/03 01:37:39;;;;;;;17.17;8.60;;;;;;;;;;4964048;28;20820;-66
2023/03/03 01:40:06;;;;;;;16.50;8.07;;;;;;;;;;4964059;28;20522;-66
2023/03/03 01:42:33;;;;;;;15.83;8.43;;;;;;;;;;4964028;28;20502;-66
2023/03/03 02:16:51;;;;;;;17.70;8.53;;;;;;;;;;4960902;28;21068;-66
2023/03/03 02:19:51;;;;;;;20.83;9.43;;;;;;;;;;4961172;28;20796;-66
2023/03/03 02:22:20;;;;;;;18.57;9.57;;;;;;;;;;4913274;28;20460;-66
2023/03/03 02:24:49;;;;;;;19.17;8.73;;;;;;;;;;4962140;28;20457;-66
2023/03/03 02:27:15;;;;;;;21.13;9.33;;;;;;;;;;4964719;28;20558;-66
2023/03/03 02:29:42;;;;;;;17.73;7.97;;;;;;;;;;4958526;28;20932;-66
2023/03/03 02:32:09;;;;;;;21.33;9.97;;;;;;;;;;4959884;28;20483;-66
2023/03/03 02:34:43;;;;;;;20.37;10.20;;;;;;;;;;4946506;28;20480;-66
2023/03/03 02:37:10;;;;;;;21.20;9.60;;;;;;;;;;4951409;28;20487;-66
2023/03/03 02:39:36;;;;;;;21.67;9.93;;;;;;;;;;4963296;28;21007;-66
2023/03/03 02:42:03;;;;;;;19.20;9.77;;;;;;;;;;4963059;28;20986;-66
2023/03/03 02:44:36;;;;;;;21.13;10.17;;;;;;;;;;4961937;28;20826;-66
2023/03/03 02:47:03;;;;;;;25.73;11.20;;;;;;;;;;4964510;28;21025;-66
2023/03/03 02:49:31;;;;;;;21.43;9.87;;;;;;;;;;4964537;28;20482;-66
2023/03/03 02:51:57;;;;;;;19.00;9.23;;;;;;;;;;4963910;28;20512;-66
2023/03/03 02:54:25;;;;;;;22.13;10.87;;;;;;;;;;4984104;28;20454;-66
2023/03/03 02:56:52;;;;;;;21.60;9.47;;;;;;;;;;4964349;28;20461;-66
2023/03/03 02:59:19;;;;;;;21.53;9.30;;;;;;;;;;4966151;28;20470;-66
2023/03/03 03:01:48;;;;;;;13.20;5.23;;;;;;;;;;4964242;28;20908;-66
2023/03/03 03:04:17;;;;;;;21.40;9.37;;;;;;;;;;4981727;28;20457;-66
2023/03/03 03:06:47;;;;;;;22.93;8.90;;;;;;;;;;4985145;28;20532;-66
2023/03/03 03:09:15;;;;;;;23.53;9.87;;;;;;;;;;4970427;28;20498;-66
2023/03/03 03:11:42;;;;;;;21.20;10.03;;;;;;;;;;4953172;28;20459;-66
2023/03/03 03:14:29;;;;;;;22.10;10.00;;;;;;;;;;4970059;28;20490;-66
2023/03/03 03:16:55;;;;;;;18.20;7.10;;;;;;;;;;4985448;28;20454;-66
2023/03/03 03:19:22;;;;;;;24.30;10.63;;;;;;;;;;4985819;28;20474;-66
2023/03/03 03:21:50;;;;;;;19.67;9.20;;;;;;;;;;4967273;28;20466;-66
2023/03/03 03:24:17;;;;;;;24.63;10.33;;;;;;;;;;4969855;28;20459;-66
2023/03/03 03:27:05;;;;;;;19.13;8.47;;;;;;;;;;4950916;28;20545;-66
2023/03/03 03:29:32;;;;;;;24.03;9.50;;;;;;;;;;4969360;28;20465;-66
2023/03/03 03:31:59;;;;;;;21.70;8.90;;;;;;;;;;4967517;28;20513;-66
2023/03/03 03:34:26;;;;;;;23.63;9.23;;;;;;;;;;4984321;28;20546;-65
2023/03/03 03:36:54;;;;;;;22.97;9.87;;;;;;;;;;4967676;28;20869;-65
2023/03/03 03:39:22;;;;;;;21.90;8.83;;;;;;;;;;4967102;28;20470;-65
2023/03/03 03:41:51;;;;;;;25.80;9.37;;;;;;;;;;4985097;28;20566;-65
2023/03/03 03:44:17;;;;;;;23.17;9.20;;;;;;;;;;4966312;28;20462;-65
2023/03/03 03:46:44;;;;;;;24.40;10.47;;;;;;;;;;4968274;28;20458;-65
2023/03/03 03:49:10;;;;;;;30.90;10.63;;;;;;;;;;4975322;28;220089;-65
2023/03/03 03:51:40;;;;;;;28.33;10.97;;;;;;;;;;4968987;28;20489;-65
2023/03/03 03:54:27;;;;;;;29.47;10.43;;;;;;;;;;4966034;28;20541;-65
2023/03/03 03:56:54;;;;;;;28.03;10.83;;;;;;;;;;4969378;28;20471;-65
2023/03/03 03:59:39;;;;;;;25.03;10.07;;;;;;;;;;4954069;28;20450;-65
2023/03/03 04:02:05;;;;;;;26.87;9.63;;;;;;;;;;4986257;28;20471;-65
2023/03/03 04:04:50;;;;;;;27.90;11.20;;;;;;;;;;4966086;28;20450;-65
2023/03/03 04:07:16;;;;;;;28.10;10.50;;;;;;;;;;4968912;28;20541;-65
2023/03/03 04:09:43;;;;;;;32.27;12.10;;;;;;;;;;4984209;28;21245;-65
2023/03/03 04:12:11;;;;;;;30.60;12.07;;;;;;;;;;4969109;28;20471;-65
2023/03/03 04:14:38;;;;;;;29.27;10.27;;;;;;;;;;4953512;28;20544;-65
2023/03/03 04:17:23;;;;;;;28.97;11.43;;;;;;;;;;4982882;28;20567;-65
2023/03/03 04:19:53;;;;;;;22.53;9.00;;;;;;;;;;4986285;28;20494;-65
2023/03/03 04:22:20;;;;;;;31.83;11.17;;;;;;;;;;4963426;28;20471;-65
2023/03/03 04:24:47;;;;;;;39.10;12.30;;;;;;;;;;4966777;28;20456;-65
2023/03/03 04:27:16;;;;;;;27.80;11.60;;;;;;;;;;4965687;28;20463;-65
2023/03/03 04:30:00;;;;;;;31.00;11.87;;;;;;;;;;4985785;28;20456;-65
2023/03/03 04:32:27;;;;;;;29.40;11.27;;;;;;;;;;4966745;28;20474;-65
2023/03/03 04:35:12;;;;;;;33.33;12.43;;;;;;;;;;4983652;28;20246;-65
2023/03/03 04:37:42;;;;;;;31.00;11.60;;;;;;;;;;4966486;28;20972;-65
2023/03/03 04:40:10;;;;;;;30.77;10.67;;;;;;;;;;4966312;28;20474;-65
2023/03/03 04:42:37;;;;;;;34.17;11.43;;;;;;;;;;4985854;28;20475;-65
2023/03/03 04:45:06;;;;;;;31.70;13.00;;;;;;;;;;4966101;28;20540;-66
2023/03/03 04:47:33;;;;;;;31.40;11.93;;;;;;;;;;4966581;28;20454;-65
2023/03/03 04:50:00;;;;;;;28.63;12.20;;;;;;;;;;4968225;28;20947;-65
2023/03/03 04:52:29;;;;;;;32.00;13.37;;;;;;;;;;4965671;28;20494;-65
2023/03/03 04:54:56;;;;;;;30.10;11.57;;;;;;;;;;4968267;28;23754;-65
2023/03/03 04:57:24;;;;;;;34.30;13.33;;;;;;;;;;4966306;28;20462;-65
2023/03/03 04:59:51;;;;;;;33.33;12.93;;;;;;;;;;4966506;28;20443;-65
2023/03/03 05:02:18;;;;;;;29.90;12.20;;;;;;;;;;4985155;28;20815;-66
2023/03/03 05:04:46;;;;;;;23.70;9.67;;;;;;;;;;4965552;28;20470;-65
2023/03/03 05:07:13;;;;;;;35.20;13.30;;;;;;;;;;4985168;28;20466;-65
2023/03/03 05:09:40;;;;;;;35.57;14.13;;;;;;;;;;4983906;28;21019;-65
2023/03/03 05:12:06;;;;;;;30.20;12.47;;;;;;;;;;4983803;28;20463;-65
2023/03/03 05:14:33;;;;;;;30.77;13.40;;;;;;;;;;4975115;28;20473;-66
2023/03/03 05:17:00;;;;;;;28.27;10.37;;;;;;;;;;4981547;28;20483;-64
2023/03/03 05:19:27;;;;;;;27.80;12.10;;;;;;;;;;4974578;28;20467;-65
2023/03/03 05:21:54;;;;;;;38.27;14.57;;;;;;;;;;4980377;28;20468;-65
2023/03/03 05:24:21;;;;;;;31.10;13.20;;;;;;;;;;4982312;28;20347;-63
2023/03/03 05:26:47;;;;;;;29.83;13.50;;;;;;;;;;4982435;28;20475;-65
2023/03/03 05:29:14;;;;;;;31.20;13.20;;;;;;;;;;4966068;28;20688;-66
2023/03/03 05:31:41;;;;;;;33.87;13.13;;;;;;;;;;4988847;28;20527;-65
2023/03/03 05:34:11;;;;;;;31.37;12.87;;;;;;;;;;4981993;28;20467;-65
2023/03/03 05:36:37;;;;;;;31.87;12.77;;;;;;;;;;4981280;28;20492;-65
2023/03/03 05:39:04;;;;;;;33.07;14.63;;;;;;;;;;4981940;28;20455;-66
2023/03/03 05:41:31;;;;;;;31.77;14.70;;;;;;;;;;4983064;28;20470;-66
2023/03/03 05:43:57;;;;;;;27.47;12.90;;;;;;;;;;4982117;28;20456;-66
2023/03/03 05:46:24;;;;;;;25.17;12.50;;;;;;;;;;4983504;28;20545;-66
2023/03/03 05:48:51;;;;;;;23.87;11.50;;;;;;;;;;4947943;28;20465;-66
2023/03/03 05:51:17;;;;;;;22.47;11.37;;;;;;;;;;4981813;28;20940;-65
2023/03/03 05:53:44;;;;;;;24.43;11.80;;;;;;;;;;4964294;28;20450;-66
2023/03/03 05:56:11;;;;;;;26.70;12.00;;;;;;;;;;4962395;28;20469;-65
2023/03/03 05:58:38;;;;;;;24.43;12.20;;;;;;;;;;4946737;28;20640;-65
2023/03/03 06:01:06;;;;;;;26.40;12.40;;;;;;;;;;4956885;28;21037;-65
2023/03/03 06:03:33;;;;;;;25.90;12.57;;;;;;;;;;4959657;28;20472;-65
2023/03/03 06:05:59;;;;;;;22.23;10.73;;;;;;;;;;4964412;28;20479;-65
2023/03/03 06:08:26;;;;;;;23.63;11.47;;;;;;;;;;4959666;28;20234;-65
2023/03/03 06:10:53;;;;;;;22.10;11.73;;;;;;;;;;4969931;28;20470;-65
2023/03/03 06:13:20;;;;;;;23.10;11.80;;;;;;;;;;4963906;28;20983;-66
2023/03/03 06:15:47;;;;;;;22.70;12.27;;;;;;;;;;4960899;28;33821;-67
2023/03/03 06:18:13;;;;;;;21.27;11.43;;;;;;;;;;4960688;28;20688;-65
2023/03/03 06:20:40;;;;;;;20.57;11.17;;;;;;;;;;4943688;28;20496;-64
2023/03/03 06:23:07;;;;;;;21.33;11.47;;;;;;;;;;4961514;28;20374;-65
2023/03/03 06:25:34;;;;;;;19.97;11.17;;;;;;;;;;4981535;28;20541;-66
2023/03/03 06:28:01;;;;;;;22.03;10.47;;;;;;;;;;4965428;28;20485;-64
2023/03/03 06:30:29;;;;;;;16.57;9.60;;;;;;;;;;4975519;28;20228;-65
2023/03/03 06:32:56;;;;;;;19.73;9.73;;;;;;;;;;4978860;28;23745;-65
2023/03/03 06:35:23;;;;;;;19.80;10.17;;;;;;;;;;4980577;28;20460;-64
2023/03/03 06:38:07;;;;;;;19.80;10.07;;;;;;;;;;4983309;28;20523;-63
2023/03/03 06:40:33;;;;;;;20.60;10.77;;;;;;;;;;4981162;28;20489;-63
2023/03/03 06:43:02;;;;;;;22.07;10.77;;;;;;;;;;4982757;28;21006;-63
2023/03/03 06:45:28;;;;;;;21.00;11.00;;;;;;;;;;4980970;28;20470;-63
2023/03/03 06:47:55;;;;;;;18.27;9.23;;;;;;;;;;4983236;28;20850;-63
2023/03/03 06:50:39;;;;;;;18.23;9.37;;;;;;;;;;4963094;28;20448;-63
2023/03/03 06:53:05;;;;;;;18.97;10.20;;;;;;;;;;4964691;28;20531;-63
2023/03/03 06:55:32;;;;;;;18.67;9.47;;;;;;;;;;4961356;28;20638;-63
2023/03/03 06:57:59;;;;;;;17.20;9.60;;;;;;;;;;4963319;28;20235;-64
2023/03/03 07:00:26;;;;;;;18.83;10.13;;;;;;;;;;4962022;28;20537;-64
2023/03/03 07:03:00;;;;;;;19.50;10.17;;;;;;;;;;4977871;28;20973;-63
2023/03/03 07:05:27;;;;;;;21.43;10.63;;;;;;;;;;4961635;28;20474;-63
2023/03/03 07:07:57;;;;;;;18.97;8.63;;;;;;;;;;4981298;28;20561;-63
2023/03/03 07:10:25;;;;;;;16.43;9.63;;;;;;;;;;4977084;28;20455;-63
2023/03/03 07:12:52;;;;;;;15.67;8.20;;;;;;;;;;4978331;28;20482;-63
2023/03/03 07:15:34;;;;;;;14.93;7.83;;;;;;;;;;4963136;28;20815;-64
2023/03/03 07:18:02;;;;;;;15.87;8.70;;;;;;;;;;4961247;28;20466;-64
2023/03/03 07:20:33;;;;;;;15.70;8.83;;;;;;;;;;4978524;28;20513;-64
2023/03/03 07:23:01;;;;;;;13.67;7.37;;;;;;;;;;4961446;28;20473;-64
2023/03/03 07:25:30;;;;;;;12.30;7.60;;;;;;;;;;4981354;28;20227;-67
2023/03/03 07:28:15;;;;;;;14.13;7.47;;;;;;;;;;4960720;28;20554;-67
2023/03/03 07:30:42;;;;;;;11.13;7.00;;;;;;;;;;4976069;28;20476;-65
2023/03/03 07:33:14;;;;;;;10.20;5.73;;;;;;;;;;4978600;28;20471;-63
2023/03/03 07:35:41;;;;;;;11.57;6.83;;;;;;;;;;4962327;28;20455;-64
2023/03/03 07:38:44;;;;;;;10.30;6.47;;;;;;;;;;4979704;28;20227;-63
2023/03/03 07:41:15;;;;;;;11.40;6.67;;;;;;;;;;4938525;28;20236;-64
2023/03/03 07:43:53;;;;;;;11.37;6.03;;;;;;;;;;4936414;28;20890;-65
2023/03/03 07:46:29;;;;;;;10.40;5.93;;;;;;;;;;4947964;28;20452;-64
2023/03/03 07:48:56;;;;;;;11.10;6.63;;;;;;;;;;4935596;28;20224;-64
2023/03/03 07:51:41;;;;;;;13.07;6.60;;;;;;;;;;4971246;28;21019;-63
2023/03/03 07:54:14;;;;;;;12.77;7.53;;;;;;;;;;4966633;28;20853;-66
2023/03/03 07:56:41;;;;;;;10.77;6.47;;;;;;;;;;4982771;28;20293;-65
2023/03/03 07:59:20;;;;;;;14.73;7.23;;;;;;;;;;4949915;28;20236;-64
2023/03/03 08:01:50;;;;;;;13.10;6.97;;;;;;;;;;4969729;28;20239;-64
2023/03/03 08:04:35;;;;;;;13.50;7.73;;;;;;;;;;4981560;28;20231;-63
2023/03/03 08:07:02;;;;;;;12.13;6.83;;;;;;;;;;4971036;28;20216;-63
2023/03/03 08:09:28;;;;;;;13.00;7.50;;;;;;;;;;4980506;28;20975;-62
2023/03/03 08:11:58;;;;;;;14.23;7.20;;;;;;;;;;4983607;28;20318;-64
2023/03/03 08:14:26;;;;;;;15.87;7.53;;;;;;;;;;4982849;28;21018;-65
2023/03/03 08:16:55;;;;;;;10.40;6.30;;;;;;;;;;4981775;28;20462;-66
2023/03/03 08:19:24;;;;;;;10.13;6.47;;;;;;;;;;4983051;28;20315;-67
2023/03/03 08:21:51;;;;;;;12.53;6.97;;;;;;;;;;4964077;28;20247;-65
2023/03/03 08:24:18;;;;;;;10.13;6.13;;;;;;;;;;4964785;28;20239;-65
2023/03/03 08:26:45;;;;;;;11.23;6.20;;;;;;;;;;4983002;28;20691;-67
2023/03/03 08:29:30;;;;;;;9.47;5.73;;;;;;;;;;4968871;28;20587;-66
2023/03/03 08:31:57;;;;;;;8.27;5.93;;;;;;;;;;4981011;28;20230;-65
2023/03/03 08:34:41;;;;;;;11.77;6.57;;;;;;;;;;4962887;28;20386;-66
2023/03/03 08:37:08;;;;;;;10.23;6.63;;;;;;;;;;4972391;28;20223;-66
2023/03/03 08:39:34;;;;;;;11.10;6.97;;;;;;;;;;4980238;28;20232;-64
2023/03/03 08:42:01;;;;;;;13.37;7.87;;;;;;;;;;4980304;28;20286;-65
2023/03/03 08:44:28;;;;;;;17.23;8.20;;;;;;;;;;4963625;28;20240;-65
2023/03/03 08:46:55;;;;;;;8.63;5.10;;;;;;;;;;4963115;28;20252;-65
2023/03/03 08:49:22;;;;;;;12.37;6.50;;;;;;;;;;4967401;28;20247;-65
2023/03/03 08:51:49;;;;;;;12.17;6.07;;;;;;;;;;4979372;28;20926;-65
2023/03/03 08:54:15;;;;;;;10.20;6.23;;;;;;;;;;4974870;28;20588;-63
2023/03/03 08:56:45;;;;;;;9.70;5.47;;;;;;;;;;4982006;28;20747;-65
2023/03/03 08:59:12;;;;;;;9.70;6.07;;;;;;;;;;4982481;28;20239;-65
2023/03/03 09:01:57;;;;;;;10.03;6.13;;;;;;;;;;4975752;28;20444;-66
2023/03/03 09:04:24;;;;;;;9.73;5.70;;;;;;;;;;4965885;28;20306;-63
2023/03/03 09:07:08;;;;;;;10.50;5.87;;;;;;;;;;4979860;28;20462;-64
2023/03/03 09:09:36;;;;;;;10.60;6.10;;;;;;;;;;4982336;28;20459;-64
2023/03/03 09:12:40;;;;;;;11.03;6.30;;;;;;;;;;4958754;28;20599;-63
2023/03/03 09:15:19;;;;;;;7.07;4.50;;;;;;;;;;4963845;28;20234;-65
2023/03/03 09:17:46;;;;;;;10.67;6.20;;;;;;;;;;4980381;28;20243;-65
2023/03/03 09:20:28;;;;;;;11.20;5.83;;;;;;;;;;4964419;28;20239;-64
2023/03/03 09:23:29;;;;;;;11.53;5.93;;;;;;;;;;4977961;28;20236;-65
2023/03/03 09:25:56;;;;;;;11.00;5.80;;;;;;;;;;4979524;28;20302;-65
2023/03/03 09:28:41;;;;;;;11.87;5.40;;;;;;;;;;4963331;28;20216;-64
2023/03/03 09:31:16;;;;;;;12.77;5.93;;;;;;;;;;4954036;28;20239;-65
2023/03/03 09:33:43;;;;;;;15.70;7.83;;;;;;;;;;4985673;28;20235;-64
2023/03/03 09:36:29;;;;;;;13.70;6.63;;;;;;;;;;4980288;28;20263;-65
2023/03/03 09:38:56;;;;;;;10.77;5.47;;;;;;;;;;4983463;28;20746;-63
2023/03/03 09:41:29;;;;;;;10.23;5.10;;;;;;;;;;4965510;28;20237;-66
2023/03/03 09:44:16;;;;;;;9.97;5.93;;;;;;;;;;4979669;28;20240;-66
2023/03/03 09:47:12;;;;;;;10.93;5.77;;;;;;;;;;4980710;28;20470;-66
2023/03/03 09:50:02;;;;;;;11.63;5.97;;;;;;;;;;4970221;28;20228;-65
2023/03/03 09:52:40;;;;;;;10.93;5.27;;;;;;;;;;4930983;28;20719;-65
2023/03/03 09:55:19;;;;;;;9.70;5.83;;;;;;;;;;4945387;28;20251;-64
2023/03/03 09:57:45;;;;;;;10.57;5.90;;;;;;;;;;4978292;28;20264;-65
2023/03/03 10:00:12;;;;;;;8.10;5.10;;;;;;;;;;4980064;28;20236;-68
2023/03/03 10:02:39;;;;;;;7.47;4.87;;;;;;;;;;4960533;28;20228;-67
2023/03/03 10:05:09;;;;;;;9.73;4.90;;;;;;;;;;4994781;28;20310;-66
2023/03/03 10:07:37;;;;;;;8.83;4.90;;;;;;;;;;4981314;28;20251;-67
2023/03/03 10:10:12;;;;;;;10.10;5.13;;;;;;;;;;4982037;28;20228;-67
2023/03/03 10:12:39;;;;;;;8.57;5.80;;;;;;;;;;4984889;28;20255;-67
2023/03/03 10:15:21;;;;;;;10.53;6.23;;;;;;;;;;4962989;28;20301;-67
2023/03/03 10:18:05;;;;;;;10.47;5.57;;;;;;;;;;4978698;28;20286;-66
2023/03/03 10:20:35;;;;;;;9.30;5.57;;;;;;;;;;4980758;28;20263;-68
2023/03/03 10:23:19;;;;;;;13.03;7.13;;;;;;;;;;4969319;28;20242;-68
2023/03/03 10:25:54;;;;;;;10.60;6.47;;;;;;;;;;4979335;28;20234;-69
2023/03/03 10:28:57;;;;;;;10.83;6.00;;;;;;;;;;4949906;28;20331;-69
2023/03/03 10:31:31;;;;;;;9.57;5.37;;;;;;;;;;4954828;28;20243;-65
2023/03/03 10:34:01;;;;;;;8.00;4.43;;;;;;;;;;4978815;28;20223;-66
2023/03/03 10:36:30;;;;;;;9.00;5.37;;;;;;;;;;4963504;28;20663;-69
2023/03/03 10:38:57;;;;;;;11.57;5.30;;;;;;;;;;4977699;28;20239;-68
2023/03/03 10:41:29;;;;;;;10.43;5.70;;;;;;;;;;4979730;28;20275;-69
2023/03/03 10:44:15;;;;;;;10.47;5.73;;;;;;;;;;4977043;28;20231;-66
2023/03/03 10:47:18;;;;;;;10.40;5.27;;;;;;;;;;4966793;28;20220;-68
2023/03/03 10:49:47;;;;;;;6.53;3.80;;;;;;;;;;4977223;28;20320;-67
2023/03/03 10:52:14;;;;;;;7.13;4.10;;;;;;;;;;4981550;28;20281;-66
2023/03/03 10:54:40;;;;;;;9.90;4.10;;;;;;;;;;4978799;28;20228;-66
2023/03/03 10:57:07;;;;;;;7.80;4.00;;;;;;;;;;4963165;28;20224;-66
2023/03/03 10:59:54;;;;;;;5.87;3.40;;;;;;;;;;4981305;28;20227;-68
2023/03/03 11:02:21;;;;;;;6.73;3.67;;;;;;;;;;4966420;28;20776;-66
2023/03/03 11:04:57;;;;;;;7.00;4.13;;;;;;;;;;4988056;28;20243;-68
2023/03/03 11:07:28;;;;;;;8.40;4.20;;;;;;;;;;4967809;28;20227;-69
2023/03/03 11:10:06;;;;;;;6.20;3.63;;;;;;;;;;4964924;28;20227;-68
2023/03/03 11:13:09;;;;;;;6.17;3.60;;;;;;;;;;4977480;28;20232;-69
2023/03/03 11:15:58;;;;;;;4.73;3.43;;;;;;;;;;4887759;28;20234;-68
2023/03/03 11:18:43;;;;;;;8.53;3.47;;;;;;;;;;4961096;28;20267;-68
2023/03/03 11:21:10;;;;;;;5.90;3.37;;;;;;;;;;4973394;28;20224;-67
2023/03/03 11:23:40;;;;;;;5.97;3.73;;;;;;;;;;4979065;28;20290;-66
2023/03/03 11:26:27;;;;;;;6.43;3.67;;;;;;;;;;4980786;28;20362;-67
2023/03/03 11:29:02;;;;;;;8.33;3.73;;;;;;;;;;4964251;28;20247;-67
2023/03/03 11:31:38;;;;;;;5.30;3.90;;;;;;;;;;4958710;28;20225;-68
2023/03/03 11:34:40;;;;;;;5.90;3.43;;;;;;;;;;4980566;28;20699;-67
2023/03/03 11:37:08;;;;;;;4.13;2.80;;;;;;;;;;4885204;29;20737;-67
2023/03/03 11:39:35;;;;;;;4.50;2.90;;;;;;;;;;4939957;28;20815;-68
2023/03/03 11:42:25;;;;;;;3.93;2.50;;;;;;;;;;4955511;28;20232;-68
2023/03/03 11:44:56;;;;;;;4.67;3.07;;;;;;;;;;4967430;28;20256;-66
2023/03/03 11:47:24;;;;;;;4.40;2.43;;;;;;;;;;4981201;28;20304;-66
2023/03/03 11:50:07;;;;;;;5.43;2.73;;;;;;;;;;4965548;28;20239;-66
2023/03/03 11:52:43;;;;;;;9.50;1.80;;;;;;;;;;4948845;28;20231;-66
2023/03/03 11:55:09;;;;;;;5.17;2.50;;;;;;;;;;4962193;28;20255;-66
2023/03/03 11:58:01;;;;;;;4.30;1.87;;;;;;;;;;4966156;28;20243;-68
2023/03/03 12:00:49;;;;;;;4.13;1.73;;;;;;;;;;4966333;28;20222;-68
2023/03/03 12:03:18;;;;;;;3.57;1.90;;;;;;;;;;4982521;28;20220;-66
2023/03/03 12:05:45;;;;;;;4.63;2.00;;;;;;;;;;4966010;28;20928;-67
2023/03/03 12:08:15;;;;;;;3.17;1.90;;;;;;;;;;4981082;28;20216;-68
2023/03/03 12:10:44;;;;;;;3.80;1.57;;;;;;;;;;4967055;28;20235;-65
2023/03/03 12:13:15;;;;;;;3.57;2.33;;;;;;;;;;4966257;28;20711;-65
2023/03/03 12:15:47;;;;;;;4.40;1.70;;;;;;;;;;4965990;28;20227;-67
2023/03/03 12:18:20;;;;;;;2.80;1.20;;;;;;;;;;4962027;28;20236;-67
2023/03/03 12:21:22;;;;;;;2.53;1.60;;;;;;;;;;4958958;28;20238;-67
2023/03/03 12:24:08;;;;;;;3.60;1.77;;;;;;;;;;4926231;28;20307;-66
2023/03/03 12:26:39;;;;;;;2.43;1.70;;;;;;;;;;4981454;28;20235;-66
2023/03/03 12:29:25;;;;;;;3.43;1.53;;;;;;;;;;4981017;28;20236;-68
2023/03/03 12:32:09;;;;;;;5.03;1.30;;;;;;;;;;4955559;28;20241;-68
2023/03/03 12:34:56;;;;;;;3.60;1.70;;;;;;;;;;4951593;28;20240;-68
2023/03/03 12:37:36;;;;;;;2.37;1.30;;;;;;;;;;4949475;28;20228;-69
2023/03/03 12:40:06;;;;;;;4.10;1.50;;;;;;;;;;4973382;28;20243;-65
2023/03/03 12:42:46;;;;;;;3.50;1.60;;;;;;;;;;4954506;28;20236;-65
2023/03/03 12:45:31;;;;;;;2.37;1.33;;;;;;;;;;4963213;28;20244;-66
2023/03/03 12:47:57;;;;;;;2.90;1.30;;;;;;;;;;4963291;28;20233;-67
2023/03/03 12:50:24;;;;;;;4.30;1.67;;;;;;;;;;4968418;28;20770;-67
2023/03/03 12:53:09;;;;;;;4.60;1.80;;;;;;;;;;4972065;28;20228;-66
2023/03/03 12:56:00;;;;;;;4.70;0.97;;;;;;;;;;4960281;28;20231;-65
2023/03/03 12:58:43;;;;;;;6.63;1.50;;;;;;;;;;4975063;28;21067;-65
2023/03/03 13:01:14;;;;;;;4.13;1.27;;;;;;;;;;4961289;28;20220;-64
2023/03/03 13:03:59;;;;;;;3.23;1.57;;;;;;;;;;4965743;28;20258;-65
2023/03/03 13:06:26;;;;;;;2.33;1.33;;;;;;;;;;4964167;28;20360;-64
2023/03/03 13:09:01;;;;;;;1.40;0.93;;;;;;;;;;4965399;28;20231;-64
2023/03/03 13:12:04;;;;;;;1.97;1.20;;;;;;;;;;4959465;28;20215;-65
2023/03/03 13:14:46;;;;;;;2.73;1.27;;;;;;;;;;4966501;28;20308;-65
2023/03/03 13:17:22;;;;;;;4.37;1.20;;;;;;;;;;4963262;28;20645;-64
2023/03/03 13:19:55;;;;;;;3.10;1.27;;;;;;;;;;4962994;28;20236;-65
2023/03/03 13:22:22;;;;;;;2.13;0.70;;;;;;;;;;4962395;28;20683;-65
2023/03/03 13:25:01;;;;;;;3.67;1.40;;;;;;;;;;4960648;28;20245;-65
2023/03/03 13:27:46;;;;;;;3.57;1.27;;;;;;;;;;4962430;28;20258;-65
2023/03/03 13:30:13;;;;;;;2.63;1.30;;;;;;;;;;4961264;28;20260;-65
2023/03/03 13:32:46;;;;;;;2.20;1.20;;;;;;;;;;4953407;28;20338;-65
2023/03/03 13:35:13;;;;;;;2.50;1.20;;;;;;;;;;4963030;28;20228;-64
2023/03/03 13:37:42;;;;;;;4.13;1.97;;;;;;;;;;4962710;28;20340;-64
2023/03/03 13:40:14;;;;;;;4.40;1.30;;;;;;;;;;4961348;28;20248;-64
2023/03/03 13:42:59;;;;;;;4.30;1.40;;;;;;;;;;4957815;28;20255;-64
2023/03/03 13:45:29;;;;;;;2.77;1.27;;;;;;;;;;4949606;28;20230;-65
2023/03/03 13:48:33;;;;;;;3.77;1.50;;;;;;;;;;4957644;28;20235;-65
2023/03/03 13:51:02;;;;;;;4.73;1.97;;;;;;;;;;4961712;28;20560;-64
2023/03/03 13:53:48;;;;;;;4.17;2.17;;;;;;;;;;4979235;28;20236;-64
2023/03/03 13:56:34;;;;;;;4.23;1.60;;;;;;;;;;4970885;28;20290;-65
2023/03/03 13:59:05;;;;;;;6.53;1.60;;;;;;;;;;4965329;28;20230;-64
2023/03/03 14:01:41;;;;;;;4.43;1.80;;;;;;;;;;4978402;28;20224;-65
2023/03/03 14:04:28;;;;;;;3.97;1.60;;;;;;;;;;4961002;28;20240;-63
2023/03/03 14:06:57;;;;;;;3.63;1.50;;;;;;;;;;4961535;28;20945;-64
2023/03/03 14:09:44;;;;;;;3.07;1.40;;;;;;;;;;4959233;28;20224;-64
2023/03/03 14:12:29;;;;;;;3.37;1.20;;;;;;;;;;4964385;28;20232;-65
2023/03/03 14:15:10;;;;;;;3.67;1.17;;;;;;;;;;4945714;28;20708;-65
2023/03/03 14:17:38;;;;;;;3.67;1.63;;;;;;;;;;4958949;28;20266;-64
2023/03/03 14:20:11;;;;;;;2.73;1.30;;;;;;;;;;4958936;28;20225;-64
2023/03/03 14:22:41;;;;;;;4.43;1.80;;;;;;;;;;4960412;28;20249;-63
2023/03/03 14:25:10;;;;;;;8.03;2.33;;;;;;;;;;4958996;28;20235;-64
2023/03/03 14:27:39;;;;;;;4.83;2.27;;;;;;;;;;4965331;28;20232;-64
2023/03/03 14:30:21;;;;;;;3.17;1.87;;;;;;;;;;4980072;28;20302;-63
2023/03/03 14:33:06;;;;;;;4.80;2.03;;;;;;;;;;4963276;28;20595;-63
2023/03/03 14:35:34;;;;;;;5.53;2.47;;;;;;;;;;4965868;28;20290;-64
2023/03/03 14:38:08;;;;;;;6.70;2.97;;;;;;;;;;4978417;28;20227;-63
2023/03/03 14:40:36;;;;;;;5.20;2.13;;;;;;;;;;4974703;28;20620;-63
2023/03/03 14:43:29;;;;;;;8.17;2.70;;;;;;;;;;4963350;28;20232;-64
2023/03/03 14:45:56;;;;;;;6.30;2.77;;;;;;;;;;4973924;28;20358;-63
2023/03/03 14:48:23;;;;;;;6.13;2.60;;;;;;;;;;4965889;28;20303;-64
2023/03/03 14:50:51;;;;;;;7.03;2.20;;;;;;;;;;4962513;28;20229;-64
2023/03/03 14:53:18;;;;;;;3.50;2.10;;;;;;;;;;4964726;28;20229;-63
2023/03/03 14:55:45;;;;;;;4.37;2.10;;;;;;;;;;4963077;28;20279;-63
2023/03/03 14:58:33;;;;;;;6.50;2.13;;;;;;;;;;4965045;28;20613;-64
2023/03/03 15:01:12;;;;;;;6.33;2.10;;;;;;;;;;4961090;28;20232;-63
2023/03/03 15:03:59;;;;;;;3.43;1.90;;;;;;;;;;4951832;28;20282;-64
2023/03/03 15:06:44;;;;;;;5.70;2.40;;;;;;;;;;4985500;28;20293;-63
2023/03/03 15:09:39;;;;;;;4.37;2.23;;;;;;;;;;4985637;28;20243;-64
2023/03/03 15:12:27;;;;;;;3.97;2.23;;;;;;;;;;4983434;28;20232;-64
2023/03/03 15:15:04;;;;;;;4.30;2.00;;;;;;;;;;4973760;28;20223;-63
2023/03/03 15:17:34;;;;;;;4.83;2.53;;;;;;;;;;4985742;28;20243;-64
2023/03/03 15:20:01;;;;;;;5.37;2.80;;;;;;;;;;4972296;28;20230;-64
2023/03/03 15:22:33;;;;;;;6.40;2.63;;;;;;;;;;4985753;28;20282;-64
2023/03/03 15:25:04;;;;;;;6.43;2.70;;;;;;;;;;4985980;28;20781;-64
2023/03/03 15:27:37;;;;;;;5.90;2.77;;;;;;;;;;4984157;28;20223;-64
2023/03/03 15:30:21;;;;;;;7.17;3.10;;;;;;;;;;4972784;28;20236;-64
2023/03/03 15:32:51;;;;;;;5.57;3.00;;;;;;;;;;4985806;28;20239;-62
2023/03/03 15:35:22;;;;;;;6.43;2.67;;;;;;;;;;4978496;28;20228;-64
2023/03/03 15:37:52;;;;;;;5.33;2.47;;;;;;;;;;4964187;28;20283;-63